Terminal Aerodrome Forecast
Issued by NWS

Home | Current Version | Previous Version | Text Only | Print | Product List | Glossary On
Versions: 1 2 3 4 5 6 7 8 9 10 11 12 13 14 15 16 17 18 19 20 21 22 23 24 25 26 27 28
000
FTUS46 KSGX 211734
TAFSAN
TAF
KSAN 211734Z 2118/2224 VRB03KT P6SM SCT250
     FM211930 29010KT P6SM SCT250
     FM220200 VRB05KT P6SM FEW008 SCT200
     FM221200 VRB03KT 5SM BR BKN006
     FM221500 VRB03KT P6SM SCT010
     FM221900 29011KT P6SM SCT250=

USA.gov is the U.S. government's official web portal to all federal, state and local government web resources and services.